Sunday, May 27, 2018, 1:53 PM EDT
Back to Local

KITH, Ithaca, Ithaca Tompkins Regional Airport

Location: Ithaca, NY, United States Lat: 42.491
Local Time: 1:53 PM EDT (17:53 GMT) Lon: -76.458
Time Zone: US/Eastern Elev: 1099 ft

Show me the last for .
Show Decoded

2018-05-27 12:56 METAR KITH 271656Z 12003KT 4SM -RA BR BKN009 OVC016 18/18 A3002 RMK AO2 SLP161
                 P0002 T01830178 =
2018-05-27 11:56 METAR KITH 271556Z 11004KT 3SM -RA BR BKN009 OVC015 18/18 A3002 RMK AO2 RAB1457
                 SLP160 P0005 T01830178 =
2018-05-27 10:56 METAR KITH 271456Z 11003KT 4SM BR OVC013 18/17 A3002 RMK AO2 RAE56 SLP161 P0001
                 60003 T01830172 53013 =
2018-05-27 09:56 METAR KITH 271356Z 13006KT 10SM -RA BKN023 OVC042 18/17 A3001 RMK AO2 RAB42
                 SLP157 P0000 T01830172 =
2018-05-27 08:56 METAR KITH 271256Z 11004KT 10SM BKN034 OVC060 18/17 A2999 RMK AO2 RAE53 SLP151
                 P0002 T01830172 =
2018-05-27 07:56 METAR KITH 271156Z 16003KT 7SM RA OVC065 18/17 A2998 RMK AO2 RAE11B34 SLP147
                 P0000 60004 70004 T01830172 10194 20172 53015 =
2018-05-27 06:56 METAR KITH 271056Z 00000KT 10SM -RA BKN055 OVC070 18/17 A2997 RMK AO2 SLP142
                 P0002 T01780167 =
2018-05-27 06:30 METAR KITH 271030Z 00000KT 6SM -RA BR BKN049 OVC075 17/17 A2996 RMK AO2 P0002 =
2018-05-27 05:56 METAR KITH 270956Z AUTO 00000KT 9SM -RA FEW050 OVC080 18/17 A2995 RMK AO2 SLP136
                 P0002 T01780167 =
2018-05-27 04:56 METAR KITH 270856Z AUTO 00000KT 10SM -RA FEW055 BKN070 OVC085 18/16 A2994 RMK
                 AO2 RAB0758E18B55 SLP130 P0000 60000 T01780161 53004 =
2018-05-27 03:56 METAR KITH 270756Z AUTO 10003KT 10SM BKN065 BKN085 18/16 A2993 RMK AO2 RAE11
                 SLP129 P0000 T01830161 =
2018-05-27 02:56 METAR KITH 270656Z AUTO 06004KT 10SM -RA FEW042 BKN110 18/16 A2992 RMK AO2
                 SLP123 P0000 T01780161 =
2018-05-27 01:56 METAR KITH 270556Z AUTO 21005KT 10SM -RA OVC085 19/16 A2992 RMK AO2 RAB47 SLP124
                 P0000 60000 T01940156 10217 20189 51007 =
2018-05-27 00:56 METAR KITH 270456Z AUTO 07003KT 10SM BKN100 19/16 A2992 RMK AO2 SLP123 T01890161
                 402830117 =
2018-05-26 23:56 METAR KITH 270356Z AUTO 08004KT 10SM OVC110 21/16 A2991 RMK AO2 SLP120 T02060161
                 =
2018-05-26 22:56 METAR KITH 270256Z AUTO 06004KT 10SM OVC120 20/17 A2990 RMK AO2 SLP118 T02000167
                 50008 =
2018-05-26 21:56 METAR KITH 270156Z 06003KT 10SM OVC120 21/18 A2990 RMK AO2 SLP119 T02060178 =
2018-05-26 20:56 METAR KITH 270056Z 08003KT 10SM CLR 21/18 A2989 RMK AO2 SLP115 T02060183 =
2018-05-26 19:56 METAR KITH 262356Z 00000KT 10SM CLR 22/19 A2988 RMK AO2 SLP111 T02170189 10283
                 20217 53012 =
2018-05-26 18:56 METAR KITH 262256Z 00000KT 10SM CLR 23/19 A2986 RMK AO2 SLP106 T02330194 =
2018-05-26 17:56 METAR KITH 262156Z 00000KT 10SM CLR 24/18 A2984 RMK AO2 SLP101 T02440183 =
2018-05-26 16:56 METAR KITH 262056Z 34005KT 10SM CLR 27/15 A2984 RMK AO2 SLP100 T02670150 58002 =
2018-05-26 15:56 METAR KITH 261956Z 32004KT 10SM FEW065 26/15 A2985 RMK AO2 SLP103 T02560150 =
2018-05-26 14:56 METAR KITH 261856Z 32008KT 10SM FEW065 27/15 A2985 RMK AO2 SLP102 T02720150 =
2018-05-26 13:56 METAR KITH 261756Z VRB04KT 10SM CLR 28/15 A2985 RMK AO2 SLP101 T02780150 10278
                 20183 58005 =

Support USWX by starting your Amazon purchase here.